createdAt,value
2022-09-14T00:01:37.149Z,96926.13
2022-09-14T00:04:08.237Z,96773.66
2022-09-14T00:06:36.845Z,96912.88
2022-09-14T00:09:06.994Z,96906.53
2022-09-14T00:11:37.685Z,96830.06
2022-09-14T00:14:07.671Z,96925.69
2022-09-14T00:16:38.194Z,96897.28
2022-09-14T00:19:08.827Z,96836.28
2022-09-14T00:21:38.446Z,96888.91
2022-09-14T00:24:08.532Z,96888.69
2022-09-14T00:26:38.498Z,96896.97
2022-09-14T00:29:07.407Z,96899.63
2022-09-14T00:31:37.382Z,96904.06
2022-09-14T00:34:06.862Z,96904.81
2022-09-14T00:36:39.688Z,96885.91
2022-09-14T00:39:08.892Z,96894.38
2022-09-14T00:41:40.666Z,96898.47
2022-09-14T00:44:46.976Z,96877.53
2022-09-14T00:47:17.215Z,96897.28
2022-09-14T00:49:45.934Z,96885.94
2022-09-14T00:52:19.177Z,96882.03
2022-09-14T00:54:49.864Z,96870.16
2022-09-14T00:57:20.777Z,96892.31
2022-09-14T00:59:51.502Z,96886.47
2022-09-14T01:02:21.656Z,96882.03
2022-09-14T01:04:50.637Z,96837.78
2022-09-14T01:07:31.740Z,96836.09
2022-09-14T01:10:07.173Z,96868.56
2022-09-14T01:12:44.722Z,96837.28
2022-09-14T01:15:21.876Z,96853.28
2022-09-14T01:17:58.406Z,96865.28
2022-09-14T01:20:31.165Z,96851.38
2022-09-14T01:23:10.142Z,96872.06
2022-09-14T01:26:08.838Z,96844.19
2022-09-14T01:28:43.772Z,96774.00
2022-09-14T01:31:18.870Z,96849.66
2022-09-14T01:33:52.952Z,96823.59
2022-09-14T01:36:22.735Z,96839.59
2022-09-14T01:38:55.173Z,96834.75
2022-09-14T01:41:29.386Z,96841.13
2022-09-14T01:44:04.488Z,96829.94
2022-09-14T01:46:39.228Z,96854.41
2022-09-14T01:49:13.308Z,96847.63
2022-09-14T01:51:47.195Z,96845.72
2022-09-14T01:54:20.815Z,96844.34
2022-09-14T01:56:52.975Z,96848.06
2022-09-14T01:59:26.137Z,96846.47
2022-09-14T02:02:01.607Z,96825.50
2022-09-14T02:04:40.577Z,96791.16
2022-09-14T02:07:09.079Z,96819.66
2022-09-14T02:09:37.521Z,96798.34
2022-09-14T02:12:06.158Z,96814.50
2022-09-14T02:14:36.073Z,96795.63
2022-09-14T02:17:04.655Z,96808.94
2022-09-14T02:19:38.477Z,96798.16
2022-09-14T02:22:06.726Z,96812.47
2022-09-14T02:24:35.107Z,96810.34
2022-09-14T02:27:04.707Z,96787.16
2022-09-14T02:29:33.044Z,96794.25
2022-09-14T02:32:11.711Z,96787.34
2022-09-14T02:34:52.521Z,96769.97
2022-09-14T02:37:26.313Z,96747.41
2022-09-14T02:40:02.799Z,96770.38
2022-09-14T02:42:45.111Z,96780.13
2022-09-14T02:45:23.582Z,96770.47
2022-09-14T02:48:02.888Z,96775.47
2022-09-14T02:50:38.114Z,96688.09
2022-09-14T02:53:14.067Z,96769.84
2022-09-14T02:55:46.325Z,96766.34
2022-09-14T02:58:15.683Z,96745.28
2022-09-14T03:00:46.179Z,96757.34
2022-09-14T03:03:18.052Z,96761.69
2022-09-14T03:05:46.600Z,96757.66
2022-09-14T03:08:15.178Z,96759.44
2022-09-14T03:10:44.943Z,96759.69
2022-09-14T03:13:13.238Z,96753.66
2022-09-14T03:15:42.316Z,96751.31
2022-09-14T03:18:14.295Z,96757.88
2022-09-14T03:20:44.721Z,96754.69
2022-09-14T03:23:13.941Z,96746.97
2022-09-14T03:25:43.987Z,96757.88
2022-09-14T03:28:13.683Z,96729.81
2022-09-14T03:30:41.861Z,96751.84
2022-09-14T03:33:10.509Z,96740.50
2022-09-14T03:35:38.661Z,96745.50
2022-09-14T03:38:08.618Z,96750.34
2022-09-14T03:40:36.988Z,96745.06
2022-09-14T03:43:05.132Z,96734.25
2022-09-14T03:45:33.340Z,96736.38
2022-09-14T03:48:01.475Z,96725.25
2022-09-14T03:50:29.669Z,96714.41
2022-09-14T03:52:58.170Z,96711.03
2022-09-14T03:55:27.947Z,96705.22
2022-09-14T03:57:57.018Z,96719.84
2022-09-14T04:00:25.217Z,96720.50
2022-09-14T04:02:53.671Z,96720.81
2022-09-14T04:05:22.080Z,96718.16
2022-09-14T04:07:50.436Z,96700.06
2022-09-14T04:10:19.110Z,96715.50
2022-09-14T04:12:49.142Z,96723.53
2022-09-14T04:15:17.522Z,96701.09
2022-09-14T04:17:45.806Z,96712.22
2022-09-14T04:20:14.025Z,96717.94
2022-09-14T04:22:42.247Z,96721.22
2022-09-14T04:25:10.706Z,96739.88
2022-09-14T04:27:39.247Z,96724.94
2022-09-14T04:30:09.797Z,96703.44
2022-09-14T04:32:38.002Z,96716.38
2022-09-14T04:35:06.736Z,96730.66
2022-09-14T04:37:35.176Z,96715.41
2022-09-14T04:40:04.001Z,96726.41
2022-09-14T04:42:32.268Z,96720.91
2022-09-14T04:45:00.520Z,96708.84
2022-09-14T04:47:31.350Z,96729.16
2022-09-14T04:49:59.480Z,96727.47
2022-09-14T04:52:27.847Z,96732.25
2022-09-14T04:54:56.204Z,96717.19
2022-09-14T04:57:24.569Z,96725.69
2022-09-14T04:59:52.877Z,96703.34
2022-09-14T05:02:21.241Z,96709.06
2022-09-14T05:04:51.143Z,96724.94
2022-09-14T05:07:19.450Z,96721.53
2022-09-14T05:09:47.771Z,96722.38
2022-09-14T05:12:15.904Z,96717.00
2022-09-14T05:14:44.478Z,96705.22
2022-09-14T05:17:12.716Z,96710.50
2022-09-14T05:19:40.912Z,96716.84
2022-09-14T05:22:10.496Z,96708.69
2022-09-14T05:24:38.978Z,96699.69
2022-09-14T05:27:07.201Z,96696.94
2022-09-14T05:29:35.467Z,96686.63
2022-09-14T05:32:04.559Z,96690.03
2022-09-14T05:34:32.675Z,96704.69
2022-09-14T05:37:00.869Z,96656.38
2022-09-14T05:39:30.703Z,96689.72
2022-09-14T05:42:00.238Z,96691.00
2022-09-14T05:44:28.427Z,96692.72
2022-09-14T05:46:56.579Z,96679.59
2022-09-14T05:49:25.527Z,96680.50
2022-09-14T05:51:54.036Z,96665.38
2022-09-14T05:54:22.306Z,96683.88
2022-09-14T05:56:51.830Z,96701.66
2022-09-14T05:59:20.065Z,96689.63
2022-09-14T06:01:48.347Z,96695.91
2022-09-14T06:04:16.867Z,96702.06
2022-09-14T06:07:01.410Z,96697.72
2022-09-14T06:09:33.470Z,96698.38
2022-09-14T06:12:03.321Z,96694.31
2022-09-14T06:14:31.607Z,96689.91
2022-09-14T06:16:59.794Z,96678.44
2022-09-14T06:19:28.322Z,96688.03
2022-09-14T06:21:56.487Z,96672.28
2022-09-14T06:24:24.646Z,96659.97
2022-09-14T06:26:53.213Z,96682.81
2022-09-14T06:29:23.218Z,96666.03
2022-09-14T06:31:51.370Z,96680.28
2022-09-14T06:34:19.588Z,96673.16
2022-09-14T06:36:48.339Z,96676.69
2022-09-14T06:39:16.575Z,96666.53
2022-09-14T06:41:44.935Z,96675.34
2022-09-14T06:44:13.132Z,96676.94
2022-09-14T06:46:45.751Z,96678.28
2022-09-14T06:49:20.863Z,96648.78
2022-09-14T06:51:49.084Z,96686.34
2022-09-14T06:54:18.745Z,96689.72
2022-09-14T06:56:47.826Z,96690.47
2022-09-14T06:59:18.184Z,96676.13
2022-09-14T07:01:49.828Z,96699.56
2022-09-14T07:04:18.948Z,96689.88
2022-09-14T07:06:49.853Z,96703.25
2022-09-14T07:09:19.501Z,96701.69
2022-09-14T07:11:48.185Z,96643.22
2022-09-14T07:14:16.874Z,96681.06
2022-09-14T07:16:45.077Z,96713.91
2022-09-14T07:19:15.924Z,96707.72
2022-09-14T07:21:44.331Z,96698.63
2022-09-14T07:24:14.979Z,96700.28
2022-09-14T07:26:44.203Z,96697.53
2022-09-14T07:29:14.769Z,96700.00
2022-09-14T07:31:45.411Z,96666.81
2022-09-14T07:34:15.316Z,96653.28
2022-09-14T07:36:44.948Z,96678.03
2022-09-14T07:39:15.314Z,96693.19
2022-09-14T07:41:44.621Z,96685.31
2022-09-14T07:44:15.978Z,96688.72
2022-09-14T07:46:45.876Z,96696.03
2022-09-14T07:49:16.148Z,96674.66
2022-09-14T07:51:44.793Z,96685.31
2022-09-14T07:54:15.317Z,96692.22
2022-09-14T07:56:43.982Z,96690.81
2022-09-14T08:02:01.238Z,96688.72
2022-09-14T08:04:30.984Z,96688.13
2022-09-14T08:06:59.488Z,96687.84
2022-09-14T08:09:27.868Z,96692.63
2022-09-14T08:11:56.267Z,96684.78
2022-09-14T08:14:24.975Z,96653.00
2022-09-14T08:16:53.302Z,96675.91
2022-09-14T08:19:21.680Z,96676.03
2022-09-14T08:21:51.440Z,96676.19
2022-09-14T08:24:21.446Z,96664.78
2022-09-14T08:26:50.349Z,96665.19
2022-09-14T08:29:20.439Z,96674.25
2022-09-14T08:31:51.817Z,96656.63
2022-09-14T08:34:20.891Z,96660.00
2022-09-14T08:36:50.558Z,96654.38
2022-09-14T08:39:19.436Z,96668.31
2022-09-14T08:41:54.697Z,96680.25
2022-09-14T08:44:28.279Z,96676.44
2022-09-14T08:47:00.998Z,96662.97
2022-09-14T08:49:40.237Z,96683.91
2022-09-14T08:52:18.813Z,96679.00
2022-09-14T08:54:51.454Z,96680.97
2022-09-14T08:57:23.841Z,96659.19
2022-09-14T09:00:02.148Z,96679.25
2022-09-14T09:02:51.345Z,96704.09
2022-09-14T09:05:30.238Z,96700.84
2022-09-14T09:08:08.187Z,96706.34
2022-09-14T09:10:39.992Z,96697.63
2022-09-14T09:13:13.501Z,96689.19
2022-09-14T09:15:47.261Z,96691.72
2022-09-14T09:18:23.663Z,96648.69
2022-09-14T09:20:53.806Z,96696.25
2022-09-14T09:23:25.286Z,96716.00
2022-09-14T09:26:00.109Z,96703.69
2022-09-14T09:28:29.918Z,96699.53
2022-09-14T09:31:05.138Z,96682.84
2022-09-14T09:33:34.451Z,96695.97
2022-09-14T09:36:03.078Z,96703.25
2022-09-14T09:38:32.765Z,96713.97
2022-09-14T09:41:07.774Z,96705.47
2022-09-14T09:43:49.385Z,96717.66
2022-09-14T09:46:19.117Z,96714.28
2022-09-14T09:48:48.611Z,96654.44
2022-09-14T09:51:23.837Z,96704.56
2022-09-14T09:53:56.707Z,96718.56
2022-09-14T09:56:27.875Z,96709.22
2022-09-14T09:58:56.677Z,96689.84
2022-09-14T10:01:29.795Z,96721.50
2022-09-14T10:04:07.623Z,96722.84
2022-09-14T10:06:43.979Z,96727.19
2022-09-14T10:09:19.717Z,96727.03
2022-09-14T10:11:49.250Z,96727.34
2022-09-14T10:14:27.442Z,96735.72
2022-09-14T10:17:06.467Z,96738.41
2022-09-14T10:19:35.540Z,96737.13
2022-09-14T10:22:17.190Z,96740.84
2022-09-14T10:24:57.447Z,96749.84
2022-09-14T10:27:39.795Z,96736.06
2022-09-14T10:30:14.458Z,96737.97
2022-09-14T10:32:47.127Z,96726.19
2022-09-14T10:35:17.645Z,96716.28
2022-09-14T10:38:02.770Z,96686.38
2022-09-14T10:40:38.506Z,96652.22
2022-09-14T10:43:15.601Z,96721.00
2022-09-14T10:45:50.700Z,96681.31
2022-09-14T10:48:40.416Z,96647.69
2022-09-14T10:51:32.715Z,96646.03
2022-09-14T10:54:08.553Z,96707.59
2022-09-14T10:56:51.875Z,96707.91
2022-09-14T10:59:32.206Z,96695.78
2022-09-14T11:02:30.457Z,96704.34
2022-09-14T11:05:12.186Z,96695.78
2022-09-14T11:07:51.070Z,96685.47
2022-09-14T11:10:29.606Z,96667.84
2022-09-14T11:13:28.097Z,96665.34
2022-09-14T11:16:06.113Z,96642.66
2022-09-14T11:18:45.593Z,96671.38
2022-09-14T11:21:22.279Z,96595.22
2022-09-14T11:23:54.938Z,96664.00
2022-09-14T11:26:31.585Z,96561.88
2022-09-14T11:29:10.518Z,96647.38
2022-09-14T11:31:55.281Z,96592.56
2022-09-14T11:34:31.957Z,96645.91
2022-09-14T11:37:05.393Z,96619.97
2022-09-14T11:39:37.744Z,96640.28
2022-09-14T11:42:11.074Z,96641.38
2022-09-14T11:44:42.548Z,96607.25
2022-09-14T11:47:14.847Z,96548.88
2022-09-14T11:49:55.410Z,96611.66
2022-09-14T11:52:25.688Z,96587.47
2022-09-14T11:54:55.021Z,96559.59
2022-09-14T11:57:27.337Z,96588.59
2022-09-14T11:59:58.838Z,96582.09
2022-09-14T12:03:01.525Z,96575.09
2022-09-14T12:05:37.369Z,96585.09
2022-09-14T12:08:48.293Z,96587.13
2022-09-14T12:11:32.490Z,96553.16
2022-09-14T12:14:31.927Z,96582.03
2022-09-14T12:17:38.928Z,96541.25
2022-09-14T12:20:42.208Z,96588.72
2022-09-14T12:23:27.947Z,96593.28
2022-09-14T12:26:39.093Z,96594.94
2022-09-14T12:29:24.169Z,96585.56
2022-09-14T12:32:27.842Z,96583.16
2022-09-14T12:35:33.582Z,96592.06
2022-09-14T12:38:22.404Z,96583.97
2022-09-14T12:40:50.669Z,96583.44
2022-09-14T12:43:53.766Z,96598.91
2022-09-14T12:46:41.042Z,96586.19
2022-09-14T12:49:31.493Z,96539.47
2022-09-14T12:52:06.584Z,96540.88
2022-09-14T12:54:52.346Z,96556.50
2022-09-14T12:57:34.768Z,96584.06
2022-09-14T13:00:12.884Z,96582.53
2022-09-14T13:03:24.052Z,96591.16
2022-09-14T13:05:53.850Z,96593.59
2022-09-14T13:08:26.023Z,96557.31
2022-09-14T13:10:54.835Z,96576.53
2022-09-14T13:13:27.114Z,96572.88
2022-09-14T13:15:57.894Z,96568.63
2022-09-14T13:18:34.678Z,96565.47
2022-09-14T13:21:18.628Z,96561.72
2022-09-14T13:23:47.293Z,96533.19
2022-09-14T13:26:20.834Z,96545.84
2022-09-14T13:28:52.245Z,96567.88
2022-09-14T13:31:26.874Z,96535.56
2022-09-14T13:33:56.874Z,96535.78
2022-09-14T13:36:28.860Z,96547.06
2022-09-14T13:39:01.785Z,96533.28
2022-09-14T13:41:32.041Z,96543.31
2022-09-14T13:44:01.992Z,96493.38
2022-09-14T13:46:30.539Z,96544.41
2022-09-14T13:48:59.067Z,96541.97
2022-09-14T13:51:30.330Z,96534.97
2022-09-14T13:54:00.206Z,96555.25
2022-09-14T13:56:31.531Z,96548.28
2022-09-14T13:59:19.331Z,96540.19
2022-09-14T14:02:00.531Z,96531.75
2022-09-14T14:04:34.240Z,96509.44
2022-09-14T14:07:16.651Z,96518.63
2022-09-14T14:09:50.881Z,96531.97
2022-09-14T14:12:25.315Z,96515.56
2022-09-14T14:14:58.649Z,96532.00
2022-09-14T14:17:34.537Z,96507.47
2022-09-14T14:20:30.638Z,96509.81
2022-09-14T14:23:03.110Z,96518.91
2022-09-14T14:25:34.035Z,96516.19
2022-09-14T14:28:04.427Z,96506.00
2022-09-14T14:30:37.759Z,96499.25
2022-09-14T14:33:06.970Z,96517.13
2022-09-14T14:35:35.249Z,96490.47
2022-09-14T14:38:05.015Z,96509.16
2022-09-14T14:40:35.079Z,96507.03
2022-09-14T14:43:04.309Z,96478.41
2022-09-14T14:45:36.363Z,96485.38
2022-09-14T14:48:05.402Z,96465.81
2022-09-14T14:50:34.296Z,96469.44
2022-09-14T14:53:02.573Z,96459.25
2022-09-14T14:55:32.511Z,96464.13
2022-09-14T14:58:01.742Z,96455.78
2022-09-14T15:00:32.190Z,96452.13
2022-09-14T15:03:00.433Z,96445.69
2022-09-14T15:05:28.660Z,96453.50
2022-09-14T15:07:56.516Z,96445.53
2022-09-14T15:10:25.316Z,96451.53
2022-09-14T15:12:54.853Z,96443.44
2022-09-14T15:15:24.247Z,96432.78
2022-09-14T15:17:52.481Z,96418.19
2022-09-14T15:20:21.209Z,96417.97
2022-09-14T15:22:49.391Z,96419.72
2022-09-14T15:25:18.995Z,96401.38
2022-09-14T15:27:47.726Z,96406.72
2022-09-14T15:30:17.544Z,96372.69
2022-09-14T15:32:45.686Z,96404.94
2022-09-14T15:35:15.591Z,96416.09
2022-09-14T15:37:43.953Z,96316.50
2022-09-14T15:40:12.946Z,96406.69
2022-09-14T15:42:41.169Z,96409.47
2022-09-14T15:45:10.192Z,96392.56
2022-09-14T15:47:43.016Z,96386.84
2022-09-14T15:50:12.287Z,96403.13
2022-09-14T15:52:41.287Z,96315.56
2022-09-14T15:55:11.497Z,96368.25
2022-09-14T15:57:40.345Z,96399.94
2022-09-14T16:00:12.631Z,96407.53
2022-09-14T16:02:42.475Z,96406.72
2022-09-14T16:05:13.123Z,96407.72
2022-09-14T16:07:42.268Z,96407.97
2022-09-14T16:10:11.229Z,96344.66
2022-09-14T16:12:39.400Z,96414.03
2022-09-14T16:15:09.697Z,96428.50
2022-09-14T16:17:37.929Z,96420.09
2022-09-14T16:20:10.199Z,96419.75
2022-09-14T16:22:38.437Z,96405.88
2022-09-14T16:25:07.187Z,96431.88
2022-09-14T16:27:35.686Z,96428.03
2022-09-14T16:30:04.376Z,96401.38
2022-09-14T16:32:32.537Z,96427.25
2022-09-14T16:35:04.640Z,96431.34
2022-09-14T16:37:36.998Z,96429.34
2022-09-14T16:40:05.802Z,96416.75
2022-09-14T16:42:33.944Z,96409.91
2022-09-14T16:45:02.171Z,96432.75
2022-09-14T16:47:31.060Z,96427.53
2022-09-14T16:49:59.542Z,96430.00
2022-09-14T16:52:28.754Z,96419.09
2022-09-14T16:54:58.654Z,96412.72
2022-09-14T16:57:29.401Z,96390.91
2022-09-14T16:59:57.757Z,96414.56
2022-09-14T17:02:25.977Z,96396.09
2022-09-14T17:04:54.785Z,96406.81
2022-09-14T17:07:23.909Z,96391.84
2022-09-14T17:09:52.054Z,96404.94
2022-09-14T17:12:21.768Z,96396.56
2022-09-14T17:14:50.011Z,96394.53
2022-09-14T17:17:18.196Z,96388.69
2022-09-14T17:19:46.503Z,96407.25
2022-09-14T17:22:14.767Z,96391.72
2022-09-14T17:24:42.996Z,96407.50
2022-09-14T17:27:11.195Z,96397.50
2022-09-14T17:29:41.054Z,96411.25
2022-09-14T17:32:14.147Z,96417.78
2022-09-14T17:34:43.340Z,96408.69
2022-09-14T17:37:11.623Z,96405.50
2022-09-14T17:39:39.916Z,96413.50
2022-09-14T17:42:09.551Z,96414.69
2022-09-14T17:44:37.700Z,96326.66
2022-09-14T17:47:07.719Z,96416.84
2022-09-14T17:49:36.005Z,96374.94
2022-09-14T17:52:04.141Z,96412.44
2022-09-14T17:54:32.419Z,96387.47
2022-09-14T17:57:00.615Z,96393.81
2022-09-14T17:59:29.079Z,96401.28
2022-09-14T18:01:57.853Z,96410.25
2022-09-14T18:04:28.299Z,96409.53
2022-09-14T18:06:57.075Z,96393.56
2022-09-14T18:09:25.658Z,96412.44
2022-09-14T18:11:56.778Z,96404.91
2022-09-14T18:14:26.131Z,96319.31
2022-09-14T18:16:54.630Z,96404.69
2022-09-14T18:19:23.495Z,96386.19
2022-09-14T18:21:53.404Z,96390.88
2022-09-14T18:24:22.489Z,96383.16
2022-09-14T18:26:51.286Z,96383.94
2022-09-14T18:29:23.626Z,96368.16
2022-09-14T18:31:53.504Z,96356.16
2022-09-14T18:34:23.719Z,96366.41
2022-09-14T18:36:54.082Z,96291.56
2022-09-14T18:39:22.898Z,96373.63
2022-09-14T18:41:54.138Z,96392.19
2022-09-14T18:44:23.020Z,96375.47
2022-09-14T18:46:52.147Z,96375.69
2022-09-14T18:49:21.976Z,96369.34
2022-09-14T18:51:50.675Z,96381.44
2022-09-14T18:54:26.718Z,96370.28
2022-09-14T18:56:56.342Z,96383.16
2022-09-14T18:59:25.011Z,96363.88
2022-09-14T19:01:53.556Z,96359.72
2022-09-14T19:04:22.224Z,96379.34
2022-09-14T19:06:50.834Z,96217.56
2022-09-14T19:09:20.823Z,96391.03
2022-09-14T19:11:49.506Z,96390.63
2022-09-14T19:14:21.474Z,96371.41
2022-09-14T19:16:51.925Z,96374.47
2022-09-14T19:19:20.780Z,96379.34
2022-09-14T19:21:49.287Z,96379.03
2022-09-14T19:24:18.782Z,96376.00
2022-09-14T19:26:51.082Z,96373.75
2022-09-14T19:29:21.912Z,96387.69
2022-09-14T19:31:52.079Z,96385.16
2022-09-14T19:34:21.436Z,96354.34
2022-09-14T19:36:50.294Z,96414.78
2022-09-14T19:39:19.179Z,96381.06
2022-09-14T19:41:49.289Z,96380.34
2022-09-14T19:44:18.267Z,96402.38
2022-09-14T19:46:47.026Z,96405.22
2022-09-14T19:49:17.399Z,96400.72
2022-09-14T19:51:46.628Z,96403.53
2022-09-14T19:54:15.579Z,96402.94
2022-09-14T19:56:44.956Z,96401.41
2022-09-14T19:59:15.766Z,96401.56
2022-09-14T20:01:44.577Z,96404.22
2022-09-14T20:04:13.474Z,96402.72
2022-09-14T20:06:45.194Z,96417.91
2022-09-14T20:09:15.979Z,96440.63
2022-09-14T20:11:45.868Z,96442.94
2022-09-14T20:14:18.093Z,96419.31
2022-09-14T20:16:48.787Z,96449.03
2022-09-14T20:19:22.746Z,96444.44
2022-09-14T20:21:53.176Z,96443.75
2022-09-14T20:24:26.049Z,96448.25
2022-09-14T20:26:56.302Z,96426.81
2022-09-14T20:29:29.261Z,96437.88
2022-09-14T20:31:57.840Z,96448.69
2022-09-14T20:34:26.428Z,96457.44
2022-09-14T20:36:55.413Z,96457.69
2022-09-14T20:39:25.106Z,96380.84
2022-09-14T20:41:53.919Z,96462.66
2022-09-14T20:44:23.301Z,96466.44
2022-09-14T20:46:53.283Z,96464.34
2022-09-14T20:51:52.780Z,96393.75
2022-09-14T20:54:21.545Z,96448.75
2022-09-14T20:56:49.757Z,96462.66
2022-09-14T20:59:19.634Z,96482.47
2022-09-14T21:01:49.589Z,96486.13
2022-09-14T21:04:21.632Z,96486.94
2022-09-14T21:06:52.652Z,96486.94
2022-09-14T21:09:22.132Z,96482.56
2022-09-14T21:11:50.341Z,96466.44
2022-09-14T21:14:20.377Z,96486.50
2022-09-14T21:16:50.791Z,96408.63
2022-09-14T21:19:23.144Z,96478.81
2022-09-14T21:21:52.023Z,96491.69
2022-09-14T21:24:22.983Z,96470.38
2022-09-14T21:26:51.371Z,96495.94
2022-09-14T21:29:23.864Z,96479.78
2022-09-14T21:31:52.884Z,96494.41
2022-09-14T21:34:22.671Z,96498.00
2022-09-14T21:36:52.099Z,96499.28
2022-09-14T21:39:23.332Z,96500.69
2022-09-14T21:41:57.976Z,96508.41
2022-09-14T21:44:30.012Z,96488.63
2022-09-14T21:46:58.080Z,96506.97
2022-09-14T21:49:27.718Z,96506.25
2022-09-14T21:51:55.848Z,96471.69
2022-09-14T21:54:24.226Z,96502.06
2022-09-14T21:56:54.196Z,96507.97
2022-09-14T21:59:23.822Z,96497.72
2022-09-14T22:01:52.569Z,96499.38
2022-09-14T22:04:22.453Z,96499.97
2022-09-14T22:06:53.415Z,96490.28
2022-09-14T22:09:23.948Z,96509.94
2022-09-14T22:11:52.348Z,96514.72
2022-09-14T22:14:22.456Z,96508.81
2022-09-14T22:16:51.089Z,96502.34
2022-09-14T22:19:21.382Z,96494.06
2022-09-14T22:21:51.429Z,96444.72
2022-09-14T22:24:22.062Z,96513.16
2022-09-14T22:26:51.377Z,96534.47
2022-09-14T22:29:20.425Z,96534.34
2022-09-14T22:31:49.130Z,96524.38
2022-09-14T22:34:18.180Z,96540.53
2022-09-14T22:36:46.470Z,96540.25
2022-09-14T22:39:16.081Z,96541.53
2022-09-14T22:41:44.289Z,96534.78
2022-09-14T22:44:13.446Z,96531.81
2022-09-14T22:46:41.831Z,96506.25
2022-09-14T22:49:10.509Z,96526.06
2022-09-14T22:51:38.695Z,96527.63
2022-09-14T22:54:07.382Z,96529.00
2022-09-14T22:56:39.499Z,96497.34
2022-09-14T22:59:10.189Z,96519.03
2022-09-14T23:01:40.739Z,96519.28
2022-09-14T23:04:11.112Z,96561.44
2022-09-14T23:06:41.328Z,96477.75
2022-09-14T23:09:11.798Z,96578.41
2022-09-14T23:11:42.355Z,96555.44
2022-09-14T23:14:10.581Z,96567.31
2022-09-14T23:19:07.992Z,96587.94
2022-09-14T23:21:36.853Z,96598.22
2022-09-14T23:24:07.484Z,96588.69
2022-09-14T23:26:35.855Z,96575.75
2022-09-14T23:29:09.982Z,96557.22
2022-09-14T23:31:38.072Z,96554.09
2022-09-14T23:34:06.956Z,96576.16
2022-09-14T23:36:35.894Z,96501.03
2022-09-14T23:39:04.909Z,96593.38
2022-09-14T23:41:33.149Z,96593.78
2022-09-14T23:44:02.028Z,96562.28
2022-09-14T23:46:31.629Z,96587.94
2022-09-14T23:48:59.951Z,96579.47
2022-09-14T23:51:28.073Z,96587.88
2022-09-14T23:53:56.388Z,96581.31
2022-09-14T23:56:24.722Z,96598.28
2022-09-14T23:58:52.819Z,96614.25
